Sacramento, CA (94282)

9:22 PM PDT on September 01, 2014 (GMT -0700)
MIDTOWN | Change Station
CLOSE
Current Station
Personal Weather Station
Location: SACRAMENTO, CA
Elevation: 24 ft
Nearby Weather Stations

Elev 24 ft 38.57 °N, 121.48 °W | Updated 1 second ago

Clear
Clear
79.3 °F
Feels Like 80 °F
N
0.0
Wind Variable Wind from South
Gusts 0.0 mph

Today
High -- | Low -- °F
--% Chance of Precip.
Yesterday
High -- | Low -- °F
Precip. -- in
6:35 AM 7:35 PM
Waxing Crescent, 47% visible
Pressure 29.71 in
Visibility 10.0 miles
Clouds Clear
Heat Index 80 °F
Dew Point 54 °F
Humidity 42%
Rainfall 0.00 in
Snow Depth Not available.
UV 0.0 out of 12
Pollen 9.40 out of 12
Ozone Good
PM2.5 Moderate
Flu Activity Not available.
METAR KSAC 020353Z AUTO 21005KT 10SM CLR 28/11 A2971 RMK AO2 SLP059 T02830111

More Conditions Fewer Conditions

Pressure 29.71 in
Visibility 10.0 miles
Clouds Clear
Heat Index 80 °F
Dew Point 54 °F
Humidity 42%
Rainfall 0.00 in
Snow Depth Not available.
UV 0.0 out of 12
Pollen 9.40 out of 12
Ozone Good
PM2.5 Moderate
Flu Activity Not available.
METAR KSAC 020353Z AUTO 21005KT 10SM CLR 28/11 A2971 RMK AO2 SLP059 T02830111

More Conditions Fewer Conditions

10-Day Weather Forecast

Almanac

Astronomy

Sep. 01, 2014 Rise Set
Actual Time 6:35 AM PDT 7:35 PM PDT
Civil Twilight 6:08 AM PDT 8:02 PM PDT
Nautical Twilight 5:35 AM PDT 8:35 PM PDT
Astronomical Twilight 5:02 AM PDT 9:08 PM PDT
Moon 1:21 PM PDT (9/1) 11:46 PM PDT (9/1)
Length of Visible Light 13h 54m
Length of Day
13h 00m
Tomorrow will be 2m 25s shorter.
Waxing Crescent, 47% of the Moon is Illuminated
Sep 2
Waxing Crescent
Sep 2
First Quarter
Sep 8
Full
Sep 15
Last Quarter
Sep 24
New

Today's Extremes

State Highs State Lows

Community

WunderPhotos

Upload Photos

1,749,560 photos uploaded!

WunderBlogs® & News

Nearby

Air Quality

  Air Quality AQ Index Pollutant
Yesterday Good
OZONE
Yesterday Good
PM10
Current Moderate
PM2.5
Current Good
OZONE
Monday Unhealthy for Sensitive Groups
OZONE
Tuesday Moderate
OZONE
Wednesday Moderate
OZONE
Thursday Moderate
OZONE
Friday Good
OZONE
Saturday Good
OZONE

Snow Depth

Station Depth Elevation
Echo Peak 0 in 7800 ft
CSS Lab 1 in 6900 ft
Adin Mountain 1 in 6200 ft
Cedar Pass 0 in 7100 ft

Earthquake Activity

City Distance Mag. Time & Date
Yountville, California 51 miles 2.6 1:15 PM PDT
2014-09-01
Gilroy, California 110 miles 3.5 9:10 AM PDT
2014-09-01
Green Valley, California 43 miles 2.5 6:37 AM PDT
2014-08-31
Napa, California 51 miles 3.2 1:56 AM PDT
2014-08-31
Minimum magnitude displayed is 2.5.

Coastal Water Temperatures

Place Temperature
No Stations Reporting

Nearby Weather Stations